Time;durP1;ratioP1;P1;durP2;ratioP2;P2;SDS_P1;SDS_P2;PMS_P1;PMS_P2;Temp;Humidity;BMP_temperature;BMP_pressure;BME280_temperature;BME280_humidity;BME280_pressure;Samples;Min_cycle;Max_cycle;Signal;HPM_P1;HPM_P2
2024/02/02 00:01:44;;;;;;;12.95;6.28;;;2.20;99.90;;;;;;5075561;28;20280;-72
2024/02/02 00:04:30;;;;;;;13.05;5.55;;;2.30;99.90;;;;;;5085640;28;20285;-72
2024/02/02 00:07:15;;;;;;;18.63;6.15;;;2.40;99.90;;;;;;5075878;28;20203;-71
2024/02/02 00:10:03;;;;;;;16.50;5.60;;;2.60;99.90;;;;;;5070609;28;20223;-71
2024/02/02 00:12:49;;;;;;;15.50;6.40;;;2.70;99.90;;;;;;5081965;28;20686;-72
2024/02/02 00:15:35;;;;;;;14.65;7.03;;;2.70;99.90;;;;;;5074002;28;20753;-72
2024/02/02 00:18:20;;;;;;;18.45;6.32;;;2.70;99.90;;;;;;5071360;28;20219;-71
2024/02/02 00:21:06;;;;;;;16.02;5.72;;;2.60;99.90;;;;;;5079975;28;20211;-72
2024/02/02 00:23:52;;;;;;;10.07;5.72;;;2.60;99.90;;;;;;5069672;28;20250;-72
2024/02/02 00:26:39;;;;;;;10.18;5.45;;;2.50;99.90;;;;;;5076924;28;20200;-72
2024/02/02 00:29:24;;;;;;;12.35;5.13;;;2.40;99.90;;;;;;5083156;28;20775;-71
2024/02/02 00:32:10;;;;;;;11.20;5.95;;;2.40;99.90;;;;;;5078671;28;20211;-71
2024/02/02 00:34:55;;;;;;;16.13;7.63;;;2.50;99.90;;;;;;5080803;28;20665;-72
2024/02/02 00:37:42;;;;;;;11.63;6.18;;;2.60;99.90;;;;;;5070988;28;20709;-72
2024/02/02 00:40:29;;;;;;;11.88;6.72;;;2.50;99.90;;;;;;5074497;28;20231;-72
2024/02/02 00:43:15;;;;;;;13.93;6.65;;;2.50;99.90;;;;;;5080299;28;20207;-72
2024/02/02 00:46:01;;;;;;;10.35;5.97;;;2.30;99.90;;;;;;5076750;28;20318;-71
2024/02/02 00:48:46;;;;;;;8.50;5.35;;;2.30;99.90;;;;;;5083090;28;20214;-71
2024/02/02 00:51:32;;;;;;;15.23;5.80;;;2.30;99.90;;;;;;5078531;28;20212;-72
2024/02/02 00:54:18;;;;;;;13.23;6.68;;;2.50;99.90;;;;;;5087471;28;20307;-72
2024/02/02 00:57:04;;;;;;;10.00;5.95;;;2.50;99.90;;;;;;5084190;28;20208;-71
2024/02/02 00:59:53;;;;;;;10.98;6.28;;;2.60;99.90;;;;;;5073403;28;20588;-72
2024/02/02 01:02:40;;;;;;;12.00;6.15;;;2.70;99.90;;;;;;5088181;28;20579;-72
2024/02/02 01:05:26;;;;;;;11.90;5.80;;;2.60;99.90;;;;;;5076910;28;20211;-71
2024/02/02 01:08:11;;;;;;;13.48;6.57;;;2.50;99.90;;;;;;5083898;28;20604;-72
2024/02/02 01:10:58;;;;;;;15.30;6.43;;;2.50;99.90;;;;;;5091654;28;20611;-72
2024/02/02 01:13:43;;;;;;;21.70;7.25;;;2.60;99.90;;;;;;5079973;28;20694;-72
2024/02/02 01:16:30;;;;;;;9.48;5.30;;;2.40;99.90;;;;;;5077483;28;20208;-72
2024/02/02 01:19:16;;;;;;;17.83;6.00;;;2.50;99.90;;;;;;5078467;28;20273;-72
2024/02/02 01:22:02;;;;;;;9.40;5.65;;;2.50;99.90;;;;;;5082513;28;20199;-72
2024/02/02 01:24:48;;;;;;;13.48;5.60;;;2.50;99.90;;;;;;5083397;28;20561;-72
2024/02/02 01:27:33;;;;;;;11.73;5.63;;;2.40;99.90;;;;;;5080598;28;20211;-72
2024/02/02 01:30:20;;;;;;;8.60;4.82;;;2.50;99.90;;;;;;5088291;28;20595;-72
2024/02/02 01:33:07;;;;;;;11.15;5.55;;;2.30;99.90;;;;;;5080491;28;20203;-72
2024/02/02 01:35:53;;;;;;;13.52;5.43;;;2.30;99.90;;;;;;5076813;28;20265;-72
2024/02/02 01:38:38;;;;;;;17.55;7.05;;;2.20;99.90;;;;;;5080602;28;20246;-72
2024/02/02 01:41:24;;;;;;;13.48;6.93;;;2.30;99.90;;;;;;5088136;28;20233;-71
2024/02/02 01:44:10;;;;;;;14.13;6.05;;;2.20;99.90;;;;;;5083435;28;20242;-71
2024/02/02 01:46:55;;;;;;;13.98;5.43;;;2.40;99.90;;;;;;5088551;28;20650;-71
2024/02/02 01:49:42;;;;;;;10.13;5.60;;;2.50;99.90;;;;;;5082133;28;20220;-71
2024/02/02 01:52:28;;;;;;;35.50;6.25;;;2.50;99.90;;;;;;5086128;28;20203;-71
2024/02/02 01:55:14;;;;;;;11.82;4.90;;;2.60;99.90;;;;;;5085306;28;20198;-71
2024/02/02 01:58:00;;;;;;;11.75;5.47;;;2.70;99.90;;;;;;5082853;28;20727;-71
2024/02/02 02:00:46;;;;;;;20.23;8.15;;;2.70;99.90;;;;;;5080487;28;20228;-71
2024/02/02 02:03:32;;;;;;;11.27;6.72;;;2.70;99.90;;;;;;5088968;28;20200;-72
2024/02/02 02:06:18;;;;;;;15.43;5.85;;;2.80;99.90;;;;;;5089146;28;20285;-71
2024/02/02 02:09:04;;;;;;;13.68;6.80;;;2.80;99.90;;;;;;5080144;28;20220;-71
2024/02/02 02:11:50;;;;;;;11.85;6.25;;;2.60;99.90;;;;;;5090240;28;20204;-71
2024/02/02 02:14:35;;;;;;;9.98;8.23;;;2.60;99.90;;;;;;5087625;28;20510;-71
2024/02/02 02:17:21;;;;;;;19.02;8.32;;;2.50;99.90;;;;;;5083826;28;20207;-71
2024/02/02 02:20:11;;;;;;;19.75;9.85;;;2.50;99.90;;;;;;5071660;28;20231;-71
2024/02/02 02:22:58;;;;;;;13.05;9.07;;;2.50;99.90;;;;;;5082747;28;20203;-71
2024/02/02 02:25:44;;;;;;;17.75;9.98;;;2.40;99.90;;;;;;5086972;28;20958;-71
2024/02/02 02:28:30;;;;;;;21.17;10.38;;;2.50;99.90;;;;;;5087785;28;20250;-71
2024/02/02 02:31:17;;;;;;;25.48;9.60;;;2.40;99.90;;;;;;5090328;28;20214;-71
2024/02/02 02:34:02;;;;;;;22.15;11.88;;;2.30;99.90;;;;;;5070378;28;20676;-71
2024/02/02 02:36:48;;;;;;;18.80;10.93;;;2.30;99.90;;;;;;5091299;28;20204;-72
2024/02/02 02:39:35;;;;;;;17.75;8.15;;;2.40;99.90;;;;;;5089881;28;20277;-71
2024/02/02 02:42:20;;;;;;;11.50;6.90;;;2.60;99.90;;;;;;5087370;28;20250;-71
2024/02/02 02:45:07;;;;;;;11.02;6.50;;;2.70;99.90;;;;;;5076965;28;20282;-71
2024/02/02 02:47:52;;;;;;;18.88;7.43;;;2.80;99.90;;;;;;5090565;28;20319;-71
2024/02/02 02:50:38;;;;;;;13.52;7.75;;;3.00;99.90;;;;;;5083112;28;20735;-71
2024/02/02 02:53:24;;;;;;;17.88;8.40;;;2.90;99.90;;;;;;5082240;28;20215;-71
2024/02/02 02:56:11;;;;;;;14.77;8.13;;;2.90;99.90;;;;;;5085356;28;20682;-71
2024/02/02 02:58:56;;;;;;;15.68;9.32;;;2.80;99.90;;;;;;5087818;28;20332;-71
2024/02/02 03:01:42;;;;;;;26.88;9.43;;;2.70;99.90;;;;;;5087737;28;20690;-71
2024/02/02 03:04:28;;;;;;;18.75;10.13;;;2.70;99.90;;;;;;5079361;28;20227;-71
2024/02/02 03:07:13;;;;;;;17.92;10.25;;;2.70;99.90;;;;;;5090165;28;20721;-71
2024/02/02 03:09:59;;;;;;;17.27;10.75;;;2.70;99.90;;;;;;5090330;28;20215;-71
2024/02/02 03:12:46;;;;;;;21.15;12.25;;;2.70;99.90;;;;;;5090258;28;20706;-71
2024/02/02 03:15:33;;;;;;;16.88;10.70;;;2.70;99.90;;;;;;5081129;28;20695;-71
2024/02/02 03:18:19;;;;;;;14.68;10.50;;;2.80;99.90;;;;;;5090721;28;20199;-71
2024/02/02 03:21:05;;;;;;;19.23;11.43;;;2.80;99.90;;;;;;5085803;28;20567;-71
2024/02/02 03:23:50;;;;;;;13.88;9.80;;;2.70;99.90;;;;;;5086255;28;20211;-71
2024/02/02 03:26:36;;;;;;;19.08;11.60;;;2.60;99.90;;;;;;5089845;28;20203;-71
2024/02/02 03:29:23;;;;;;;22.83;11.27;;;2.50;99.90;;;;;;5082816;28;20343;-71
2024/02/02 03:32:10;;;;;;;18.55;11.90;;;2.50;99.90;;;;;;5074337;28;20211;-71
2024/02/02 03:34:55;;;;;;;19.30;12.43;;;2.40;99.90;;;;;;5075469;28;20195;-71
2024/02/02 03:37:41;;;;;;;19.65;12.50;;;2.60;99.90;;;;;;5090618;28;20206;-71
2024/02/02 03:40:26;;;;;;;19.08;11.05;;;2.60;99.90;;;;;;5089960;28;20737;-71
2024/02/02 03:43:12;;;;;;;18.60;11.82;;;2.60;99.90;;;;;;5067197;28;20206;-71
2024/02/02 03:45:59;;;;;;;18.20;11.57;;;2.60;99.90;;;;;;5064641;28;20198;-71
2024/02/02 03:48:45;;;;;;;23.80;12.13;;;2.50;99.90;;;;;;5054383;28;20223;-71
2024/02/02 03:51:30;;;;;;;13.82;10.32;;;2.50;99.90;;;;;;5062295;28;20200;-71
2024/02/02 03:54:16;;;;;;;15.25;10.52;;;2.40;99.90;;;;;;5066436;28;20208;-71
2024/02/02 03:57:02;;;;;;;18.88;10.93;;;2.40;99.90;;;;;;5072335;28;20208;-71
2024/02/02 03:59:48;;;;;;;18.20;11.25;;;2.40;99.90;;;;;;5068256;28;20226;-71
2024/02/02 04:02:34;;;;;;;22.40;10.85;;;2.40;99.90;;;;;;5060273;28;20267;-71
2024/02/02 04:05:20;;;;;;;19.08;10.25;;;2.50;99.90;;;;;;5070090;28;20200;-71
2024/02/02 04:08:07;;;;;;;20.77;9.98;;;2.50;99.90;;;;;;5088043;28;20203;-71
2024/02/02 04:10:53;;;;;;;19.83;10.88;;;2.50;99.90;;;;;;5074014;28;20227;-71
2024/02/02 04:13:38;;;;;;;25.60;11.70;;;2.60;99.90;;;;;;5072943;28;20569;-71
2024/02/02 04:16:24;;;;;;;21.17;11.95;;;2.90;99.90;;;;;;5073013;28;20203;-71
2024/02/02 04:19:15;;;;;;;13.38;10.27;;;3.00;99.90;;;;;;5063524;28;20229;-71
2024/02/02 04:22:01;;;;;;;24.23;12.00;;;2.90;99.90;;;;;;5055872;28;20208;-71
2024/02/02 04:24:46;;;;;;;18.88;11.10;;;2.90;99.90;;;;;;5070182;28;20215;-71
2024/02/02 04:27:34;;;;;;;25.15;11.13;;;3.00;99.90;;;;;;5061940;28;20764;-71
2024/02/02 04:30:19;;;;;;;15.88;9.68;;;2.90;99.90;;;;;;5073996;28;20218;-71
2024/02/02 04:33:06;;;;;;;23.13;9.55;;;2.90;99.90;;;;;;5066904;28;20573;-71
2024/02/02 04:35:52;;;;;;;20.08;9.75;;;2.80;99.90;;;;;;5059883;28;20208;-71
2024/02/02 04:38:38;;;;;;;15.68;10.13;;;2.80;99.90;;;;;;5076601;28;20319;-71
2024/02/02 04:41:23;;;;;;;18.83;11.70;;;2.80;99.90;;;;;;5071425;28;20235;-71
2024/02/02 04:44:09;;;;;;;16.00;9.15;;;2.80;99.90;;;;;;5075533;28;20267;-71
2024/02/02 04:46:55;;;;;;;16.13;9.85;;;2.90;99.90;;;;;;5079185;28;20296;-72
2024/02/02 04:49:40;;;;;;;20.25;9.38;;;3.00;99.90;;;;;;5081651;28;20305;-71
2024/02/02 04:52:27;;;;;;;13.68;8.82;;;3.10;99.90;;;;;;5074989;28;20243;-71
2024/02/02 04:55:13;;;;;;;13.98;8.60;;;3.00;99.90;;;;;;5077589;28;20199;-71
2024/02/02 04:57:59;;;;;;;14.48;9.00;;;2.90;99.90;;;;;;5072758;28;20571;-71
2024/02/02 05:00:44;;;;;;;16.17;9.15;;;2.90;99.90;;;;;;5072691;28;20709;-71
2024/02/02 05:03:31;;;;;;;16.80;9.80;;;3.00;99.90;;;;;;5065819;28;20685;-72
2024/02/02 05:06:17;;;;;;;16.60;9.18;;;3.20;99.90;;;;;;5064101;28;20377;-71
2024/02/02 05:09:05;;;;;;;19.08;9.20;;;3.10;99.90;;;;;;5074243;28;20220;-71
2024/02/02 05:11:50;;;;;;;14.18;8.93;;;3.10;99.90;;;;;;5071649;28;20198;-71
2024/02/02 05:14:36;;;;;;;14.93;9.82;;;3.00;99.90;;;;;;5068519;28;20196;-71
2024/02/02 05:17:22;;;;;;;15.88;10.18;;;3.10;99.90;;;;;;5079801;28;20583;-71
2024/02/02 05:20:08;;;;;;;14.07;9.10;;;3.20;99.90;;;;;;5078275;28;20270;-71
2024/02/02 05:22:53;;;;;;;13.82;7.93;;;3.30;99.90;;;;;;5072829;28;20207;-71
2024/02/02 05:25:42;;;;;;;19.02;9.30;;;3.40;99.90;;;;;;5069940;28;20567;-71
2024/02/02 05:28:27;;;;;;;12.98;9.48;;;3.30;99.90;;;;;;5088565;28;20769;-71
2024/02/02 05:31:13;;;;;;;12.27;8.98;;;3.30;99.90;;;;;;5072381;28;20209;-71
2024/02/02 05:33:58;;;;;;;19.88;9.40;;;3.20;99.90;;;;;;5085231;28;20208;-71
2024/02/02 05:36:44;;;;;;;19.60;8.75;;;3.10;99.90;;;;;;5069157;28;20205;-71
2024/02/02 05:39:30;;;;;;;13.55;8.63;;;3.00;99.90;;;;;;5075371;28;20369;-71
2024/02/02 05:42:17;;;;;;;15.80;9.00;;;3.00;99.90;;;;;;5069682;28;20675;-71
2024/02/02 05:45:03;;;;;;;16.63;9.18;;;2.90;99.90;;;;;;5064682;28;20203;-71
2024/02/02 05:47:48;;;;;;;17.05;9.50;;;3.00;99.90;;;;;;5075725;28;20729;-71
2024/02/02 05:50:34;;;;;;;17.20;10.10;;;3.10;99.90;;;;;;5074184;28;20220;-71
2024/02/02 05:53:19;;;;;;;14.18;9.43;;;3.10;99.90;;;;;;5074675;28;20560;-71
2024/02/02 05:56:05;;;;;;;15.27;10.35;;;3.20;99.90;;;;;;5064620;28;20272;-71
2024/02/02 05:58:52;;;;;;;19.83;10.30;;;3.20;99.90;;;;;;5077385;28;20219;-71
2024/02/02 06:01:38;;;;;;;14.13;10.32;;;3.20;99.90;;;;;;5070849;28;20224;-71
2024/02/02 06:04:24;;;;;;;12.73;9.98;;;3.10;99.90;;;;;;5060321;28;20205;-71
2024/02/02 06:07:09;;;;;;;12.82;9.20;;;3.10;99.90;;;;;;5077998;28;20200;-71
2024/02/02 06:09:55;;;;;;;16.40;10.00;;;3.20;99.90;;;;;;5067876;28;20223;-71
2024/02/02 06:12:40;;;;;;;18.73;10.55;;;3.10;99.90;;;;;;5069457;28;20212;-72
2024/02/02 06:15:27;;;;;;;23.55;11.25;;;3.10;99.90;;;;;;5085513;28;20205;-71
2024/02/02 06:18:15;;;;;;;14.77;9.55;;;3.10;99.90;;;;;;5067661;28;20196;-71
2024/02/02 06:21:00;;;;;;;14.85;9.18;;;3.20;99.90;;;;;;5065121;28;20229;-71
2024/02/02 06:23:46;;;;;;;15.05;10.73;;;3.10;99.90;;;;;;5068271;28;20682;-71
2024/02/02 06:26:32;;;;;;;16.75;10.10;;;3.10;99.90;;;;;;5089197;28;20676;-71
2024/02/02 06:29:18;;;;;;;14.15;9.65;;;3.10;99.90;;;;;;5075537;28;20219;-71
2024/02/02 06:32:06;;;;;;;14.43;9.35;;;3.10;99.90;;;;;;5064499;28;20197;-71
2024/02/02 06:34:55;;;;;;;17.05;9.57;;;3.20;99.90;;;;;;5078080;28;20702;-71
2024/02/02 06:37:41;;;;;;;18.30;9.27;;;3.30;99.90;;;;;;5070824;28;20218;-71
2024/02/02 06:40:27;;;;;;;20.45;9.98;;;3.30;99.90;;;;;;5067889;28;20260;-71
2024/02/02 06:43:12;;;;;;;13.48;9.50;;;3.30;99.90;;;;;;5057897;28;20220;-72
2024/02/02 06:45:58;;;;;;;16.88;9.60;;;3.20;99.90;;;;;;5064798;28;20697;-71
2024/02/02 06:48:45;;;;;;;14.68;9.35;;;3.20;99.90;;;;;;5087983;28;20617;-71
2024/02/02 06:51:31;;;;;;;19.30;10.45;;;3.20;99.90;;;;;;5075036;28;20200;-71
2024/02/02 06:54:17;;;;;;;14.40;10.73;;;3.30;99.90;;;;;;5069213;28;20196;-71
2024/02/02 06:57:02;;;;;;;23.02;11.20;;;3.20;99.90;;;;;;5070229;28;20270;-71
2024/02/02 06:59:49;;;;;;;15.10;10.75;;;3.20;99.90;;;;;;5069717;28;20789;-71
2024/02/02 07:02:35;;;;;;;19.13;9.68;;;3.30;99.90;;;;;;5088897;28;20196;-71
2024/02/02 07:05:22;;;;;;;12.68;9.50;;;3.20;99.90;;;;;;5068625;28;20617;-71
2024/02/02 07:08:08;;;;;;;15.32;9.07;;;3.20;99.90;;;;;;5065410;28;20200;-72
2024/02/02 07:11:06;;;;;;;21.70;10.80;;;3.20;99.90;;;;;;5072623;28;20235;-71
2024/02/02 07:13:52;;;;;;;11.20;9.40;;;3.20;99.90;;;;;;5070804;28;20207;-71
2024/02/02 07:16:38;;;;;;;16.98;10.02;;;3.40;99.90;;;;;;5061763;28;20221;-71
2024/02/02 07:19:38;;;;;;;17.90;9.60;;;3.40;99.90;;;;;;5066452;28;20220;-71
2024/02/02 07:22:38;;;;;;;15.55;8.50;;;3.40;99.90;;;;;;5070490;28;20294;-71
2024/02/02 07:25:25;;;;;;;14.18;8.75;;;3.40;99.90;;;;;;5069127;28;20340;-71
2024/02/02 07:28:35;;;;;;;16.40;9.77;;;3.50;99.90;;;;;;5062788;28;20267;-71
2024/02/02 07:31:35;;;;;;;14.07;8.60;;;3.40;99.90;;;;;;5064871;28;20236;-71
2024/02/02 07:34:41;;;;;;;13.93;8.07;;;3.40;99.90;;;;;;5065216;28;20209;-71
2024/02/02 07:37:45;;;;;;;11.50;8.32;;;3.40;99.90;;;;;;5076744;28;20204;-71
2024/02/02 07:41:04;;;;;;;18.60;9.25;;;3.40;99.90;;;;;;5072315;28;20228;-72
2024/02/02 07:43:50;;;;;;;18.92;10.02;;;3.50;99.90;;;;;;5079611;28;20693;-72
2024/02/02 07:46:35;;;;;;;15.60;9.60;;;3.50;99.90;;;;;;5074867;28;20205;-72
2024/02/02 07:49:21;;;;;;;14.85;9.40;;;3.60;99.90;;;;;;5078326;28;20248;-72
2024/02/02 07:52:07;;;;;;;19.35;8.55;;;3.60;99.90;;;;;;5067764;28;20196;-72
2024/02/02 07:54:54;;;;;;;13.25;8.10;;;3.60;99.90;;;;;;5082994;28;20209;-72
2024/02/02 07:57:39;;;;;;;11.90;7.93;;;3.60;99.90;;;;;;5076712;28;20226;-72
2024/02/02 08:00:25;;;;;;;10.35;8.07;;;3.70;99.90;;;;;;5078750;28;20722;-72
2024/02/02 08:03:11;;;;;;;16.02;8.88;;;3.70;99.90;;;;;;5073334;28;20205;-72
2024/02/02 08:05:56;;;;;;;10.85;9.13;;;3.80;99.90;;;;;;5070907;28;20219;-72
2024/02/02 08:08:42;;;;;;;17.30;14.32;;;3.80;99.90;;;;;;5071255;28;20353;-72
2024/02/02 08:11:35;;;;;;;21.77;16.13;;;3.80;99.90;;;;;;5069086;28;20213;-72
2024/02/02 08:14:21;;;;;;;17.88;11.57;;;3.90;99.90;;;;;;5066381;28;20243;-71
2024/02/02 08:17:09;;;;;;;20.75;9.40;;;3.90;99.90;;;;;;5074783;28;20757;-72
2024/02/02 08:19:55;;;;;;;14.35;8.55;;;3.90;99.90;;;;;;5073494;28;20316;-72
2024/02/02 08:22:43;;;;;;;22.50;15.23;;;3.90;99.90;;;;;;5077384;28;20217;-72
2024/02/02 08:25:28;;;;;;;31.90;16.55;;;4.00;99.90;;;;;;5077426;28;20206;-72
2024/02/02 08:28:15;;;;;;;25.08;15.65;;;4.20;99.90;;;;;;5082686;28;20699;-72
2024/02/02 08:31:01;;;;;;;33.20;18.00;;;4.30;99.90;;;;;;5072762;28;20200;-72
2024/02/02 08:33:46;;;;;;;32.25;16.73;;;4.50;99.90;;;;;;5069873;28;20209;-72
2024/02/02 08:36:32;;;;;;;25.27;13.30;;;4.70;99.90;;;;;;5072565;28;20208;-72
2024/02/02 08:39:18;;;;;;;26.05;13.20;;;4.80;99.90;;;;;;5074341;28;20315;-72
2024/02/02 08:42:09;;;;;;;26.60;13.57;;;5.10;99.90;;;;;;5071740;28;20224;-72
2024/02/02 08:44:58;;;;;;;20.85;11.50;;;5.30;99.90;;;;;;5070421;28;20219;-72
2024/02/02 08:47:44;;;;;;;20.80;12.45;;;5.40;99.90;;;;;;5071999;28;20712;-72
2024/02/02 08:50:30;;;;;;;22.75;11.70;;;5.60;99.90;;;;;;5060742;28;20740;-72
2024/02/02 08:53:17;;;;;;;25.80;11.70;;;5.70;99.90;;;;;;5064015;28;20584;-72
2024/02/02 08:56:08;;;;;;;27.00;11.30;;;5.80;99.90;;;;;;5065064;28;20690;-74
2024/02/02 08:58:55;;;;;;;23.50;13.30;;;5.90;99.90;;;;;;5077802;28;20224;-72
2024/02/02 09:01:43;;;;;;;25.17;11.83;;;5.90;99.90;;;;;;5072867;28;20228;-72
2024/02/02 09:04:58;;;;;;;28.05;11.60;;;6.00;99.90;;;;;;5083316;28;20566;-72
2024/02/02 09:07:48;;;;;;;18.07;9.97;;;6.00;99.90;;;;;;5079665;28;20309;-72
2024/02/02 09:11:16;;;;;;;21.07;9.77;;;6.10;99.90;;;;;;5074861;28;20439;-72
2024/02/02 09:14:08;;;;;;;22.70;11.37;;;6.20;99.90;;;;;;5074972;28;20459;-72
2024/02/02 09:16:56;;;;;;;19.87;11.77;;;6.20;99.90;;;;;;5070329;28;20456;-72
2024/02/02 09:19:43;;;;;;;22.37;9.90;;;6.20;99.90;;;;;;5066678;28;20493;-72
2024/02/02 09:22:28;;;;;;;19.50;10.33;;;6.30;99.90;;;;;;5075481;28;20839;-72
2024/02/02 09:25:25;;;;;;;13.00;8.93;;;6.40;99.90;;;;;;5075808;28;20927;-72
2024/02/02 09:28:36;;;;;;;24.43;9.23;;;6.40;99.90;;;;;;5077757;28;20464;-74
2024/02/02 09:31:25;;;;;;;22.63;10.30;;;6.40;99.90;;;;;;5068653;28;20450;-72
2024/02/02 09:34:20;;;;;;;19.05;9.63;;;6.30;99.90;;;;;;5072214;28;20844;-72
2024/02/02 09:37:10;;;;;;;22.03;9.83;;;6.30;99.90;;;;;;5078180;28;20206;-72
2024/02/02 09:39:56;;;;;;;14.90;10.83;;;6.40;99.90;;;;;;5080216;28;20445;-72
2024/02/02 09:43:11;;;;;;;17.20;10.80;;;6.60;99.90;;;;;;5070097;28;20564;-72
2024/02/02 09:46:05;;;;;;;13.95;9.00;;;6.70;99.90;;;;;;5077158;28;20459;-72
2024/02/02 09:49:01;;;;;;;18.73;9.75;;;6.90;99.90;;;;;;5077655;28;21698;-72
2024/02/02 09:51:59;;;;;;;14.70;9.17;;;7.10;99.90;;;;;;5086707;28;20202;-72
2024/02/02 09:54:53;;;;;;;21.80;8.90;;;7.30;99.90;;;;;;5075672;28;20455;-72
2024/02/02 09:57:45;;;;;;;14.97;8.73;;;7.40;99.90;;;;;;5078527;28;20452;-72
2024/02/02 10:00:42;;;;;;;18.30;8.77;;;7.60;99.90;;;;;;5077355;28;21006;-72
2024/02/02 10:03:40;;;;;;;19.17;9.33;;;7.80;99.90;;;;;;5070112;28;20471;-72
2024/02/02 10:06:38;;;;;;;18.77;8.40;;;7.70;99.90;;;;;;5070226;28;20814;-72
2024/02/02 10:09:49;;;;;;;20.67;8.57;;;7.90;99.90;;;;;;5068068;28;20443;-72
2024/02/02 10:12:44;;;;;;;24.83;8.93;;;8.10;99.90;;;;;;5076156;28;20523;-72
2024/02/02 10:15:46;;;;;;;19.87;7.93;;;8.30;99.90;;;;;;5080706;28;20514;-72
2024/02/02 10:18:50;;;;;;;21.27;8.43;;;8.50;99.90;;;;;;5075388;28;20442;-72
2024/02/02 10:21:50;;;;;;;20.20;8.37;;;8.70;99.90;;;;;;5071239;28;20464;-72
2024/02/02 10:24:59;;;;;;;26.43;8.53;;;8.90;99.90;;;;;;5082602;28;20449;-72
2024/02/02 10:28:06;;;;;;;16.87;7.00;;;9.00;99.90;;;;;;5067655;28;21039;-72
2024/02/02 10:31:05;;;;;;;21.03;7.30;;;9.00;99.90;;;;;;5076021;28;21030;-72
2024/02/02 10:34:06;;;;;;;15.80;7.80;;;9.20;99.90;;;;;;5074729;28;20488;-73
2024/02/02 10:37:09;;;;;;;12.13;6.20;;;9.40;99.90;;;;;;5080576;28;20444;-72
2024/02/02 10:40:22;;;;;;;18.70;7.70;;;9.50;99.90;;;;;;5058780;28;20478;-72
2024/02/02 10:43:29;;;;;;;20.00;7.90;;;9.50;99.90;;;;;;5064722;28;20452;-72
2024/02/02 10:46:25;;;;;;;15.10;7.97;;;9.60;99.90;;;;;;5079411;28;20451;-72
2024/02/02 10:49:28;;;;;;;11.90;6.97;;;9.70;99.90;;;;;;5070913;28;20518;-73
2024/02/02 10:52:29;;;;;;;19.90;7.90;;;9.70;99.90;;;;;;5068314;28;20445;-72
2024/02/02 10:55:33;;;;;;;20.77;7.40;;;9.80;99.90;;;;;;5075938;28;20946;-73
2024/02/02 10:58:35;;;;;;;15.60;6.23;;;9.80;99.90;;;;;;5077704;28;20452;-72
2024/02/02 11:01:30;;;;;;;19.40;7.53;;;9.80;99.90;;;;;;5073388;28;20575;-72
2024/02/02 11:04:23;;;;;;;12.27;6.67;;;9.80;99.90;;;;;;5074193;28;20487;-72
2024/02/02 11:07:19;;;;;;;22.60;6.77;;;9.80;99.90;;;;;;5071886;28;20530;-72
2024/02/02 11:10:08;;;;;;;18.83;6.37;;;9.70;99.90;;;;;;5078261;28;20607;-72
2024/02/02 11:13:04;;;;;;;10.50;6.53;;;9.80;99.90;;;;;;5074921;28;20834;-72
2024/02/02 11:16:01;;;;;;;19.97;6.70;;;9.90;99.90;;;;;;5064064;28;21080;-72
2024/02/02 11:19:06;;;;;;;20.83;6.33;;;10.00;99.90;;;;;;5078616;28;20461;-72
2024/02/02 11:22:07;;;;;;;18.87;6.23;;;10.00;99.90;;;;;;5079495;28;20491;-73
2024/02/02 11:25:02;;;;;;;17.47;5.83;;;10.10;99.90;;;;;;5068908;28;20466;-73
2024/02/02 11:27:53;;;;;;;13.40;5.10;;;10.00;99.90;;;;;;5072973;28;20455;-72
2024/02/02 11:30:51;;;;;;;12.50;5.77;;;10.00;99.90;;;;;;5075335;28;20612;-72
2024/02/02 11:33:47;;;;;;;12.60;5.93;;;9.80;99.90;;;;;;5069623;28;20585;-73
2024/02/02 11:36:50;;;;;;;9.77;5.83;;;9.70;99.90;;;;;;5076806;28;20558;-73
2024/02/02 11:39:53;;;;;;;15.33;5.50;;;9.60;99.90;;;;;;5071591;28;20622;-73
2024/02/02 11:42:40;;;;;;;15.33;5.43;;;9.70;99.90;;;;;;5066196;28;20884;-73
2024/02/02 11:45:29;;;;;;;20.57;6.00;;;9.80;99.90;;;;;;5067412;28;20452;-73
2024/02/02 11:48:26;;;;;;;15.60;5.60;;;9.80;99.90;;;;;;5074294;28;20441;-73
2024/02/02 11:51:13;;;;;;;9.87;5.03;;;9.80;99.90;;;;;;5070987;28;20599;-73
2024/02/02 11:54:03;;;;;;;10.50;4.87;;;9.90;99.90;;;;;;5066816;28;20441;-73
2024/02/02 11:56:51;;;;;;;8.77;4.80;;;9.90;99.90;;;;;;5063413;28;20514;-72
2024/02/02 11:59:40;;;;;;;12.93;4.43;;;10.10;99.90;;;;;;5070255;28;21110;-73
2024/02/02 12:02:39;;;;;;;9.70;4.60;;;10.10;99.90;;;;;;5075755;28;20476;-72
2024/02/02 12:05:34;;;;;;;7.23;4.13;;;10.20;99.90;;;;;;5079528;28;20484;-73
2024/02/02 12:08:29;;;;;;;16.83;4.40;;;10.20;99.90;;;;;;5078680;28;20464;-73
2024/02/02 12:11:17;;;;;;;12.13;4.63;;;10.10;99.90;;;;;;5069247;28;20514;-72
2024/02/02 12:14:10;;;;;;;12.67;4.20;;;10.10;99.90;;;;;;5068838;28;20569;-72
2024/02/02 12:16:56;;;;;;;9.93;3.83;;;10.00;99.90;;;;;;5082054;28;20438;-73
2024/02/02 12:19:43;;;;;;;9.60;3.70;;;10.10;99.90;;;;;;5077085;28;20829;-73
2024/02/02 12:22:31;;;;;;;10.90;3.47;;;10.10;99.90;;;;;;5065627;28;20759;-72
2024/02/02 12:25:18;;;;;;;10.80;4.60;;;10.00;99.90;;;;;;5072782;28;20441;-73
2024/02/02 12:28:05;;;;;;;10.67;3.60;;;10.00;99.90;;;;;;5080532;28;20444;-73
2024/02/02 12:30:51;;;;;;;10.53;3.80;;;10.00;99.90;;;;;;5080754;28;20459;-73
2024/02/02 12:33:37;;;;;;;8.70;3.33;;;10.10;99.90;;;;;;5078801;28;20456;-73
2024/02/02 12:36:22;;;;;;;7.60;3.33;;;10.10;99.90;;;;;;5069778;28;20619;-72
2024/02/02 12:39:10;;;;;;;8.33;3.63;;;10.10;99.90;;;;;;5077715;28;20718;-73
2024/02/02 12:41:56;;;;;;;9.83;3.60;;;10.20;99.90;;;;;;5079283;28;20465;-73
2024/02/02 12:44:41;;;;;;;11.30;4.20;;;10.30;99.90;;;;;;5084593;28;20505;-73
2024/02/02 12:47:27;;;;;;;9.40;3.50;;;10.40;99.90;;;;;;5079975;28;20440;-73
2024/02/02 12:50:16;;;;;;;7.17;3.87;;;10.40;99.90;;;;;;5068787;28;20469;-73
2024/02/02 12:53:02;;;;;;;13.43;3.93;;;10.50;99.90;;;;;;5075357;28;21009;-73
2024/02/02 12:55:49;;;;;;;12.17;3.50;;;10.60;99.90;;;;;;5086583;28;20450;-72
2024/02/02 12:58:35;;;;;;;10.00;3.77;;;10.60;99.90;;;;;;5080426;28;20903;-73
2024/02/02 13:01:21;;;;;;;9.87;3.20;;;10.60;99.90;;;;;;5075256;28;20812;-72
2024/02/02 13:04:06;;;;;;;12.67;3.27;;;10.70;99.90;;;;;;5077316;28;20551;-73
2024/02/02 13:06:52;;;;;;;8.60;3.70;;;10.80;99.90;;;;;;5084539;28;20456;-73
2024/02/02 13:09:40;;;;;;;7.60;3.13;;;10.90;99.90;;;;;;5080748;28;20914;-73
2024/02/02 13:12:32;;;;;;;8.00;3.30;;;11.00;99.90;;;;;;5082811;28;20440;-72
2024/02/02 13:15:21;;;;;;;6.63;3.40;;;11.20;99.90;;;;;;5078559;28;20955;-73
2024/02/02 13:18:16;;;;;;;5.60;2.90;;;11.40;99.90;;;;;;5077327;28;20917;-73
2024/02/02 13:21:02;;;;;;;5.50;2.53;;;11.70;99.90;;;;;;5085105;28;20776;-73
2024/02/02 13:23:47;;;;;;;8.77;4.30;;;11.80;99.90;;;;;;5080111;28;20538;-73
2024/02/02 13:26:37;;;;;;;12.53;3.67;;;11.80;99.90;;;;;;5081896;28;20420;-73
2024/02/02 13:29:27;;;;;;;6.63;2.90;;;11.70;99.90;;;;;;5076699;28;20485;-72
2024/02/02 13:32:17;;;;;;;14.63;3.30;;;11.50;99.90;;;;;;5071410;28;20445;-73
2024/02/02 13:35:08;;;;;;;10.17;3.87;;;11.40;99.90;;;;;;5077392;28;20838;-73
2024/02/02 13:37:54;;;;;;;11.53;3.53;;;11.40;99.90;;;;;;5070493;28;20448;-73
2024/02/02 13:40:39;;;;;;;6.80;3.10;;;11.20;99.90;;;;;;5071818;28;20479;-72
2024/02/02 13:43:25;;;;;;;6.00;4.53;;;11.30;99.90;;;;;;5066232;28;20469;-73
2024/02/02 13:46:12;;;;;;;5.00;3.40;;;11.30;99.90;;;;;;5070893;28;20457;-73
2024/02/02 13:49:00;;;;;;;9.60;3.43;;;11.50;99.90;;;;;;5081589;28;20527;-73
2024/02/02 13:51:45;;;;;;;4.50;3.30;;;11.70;99.90;;;;;;5082348;28;20430;-73
2024/02/02 13:54:31;;;;;;;6.13;2.90;;;11.80;99.90;;;;;;5073629;28;20441;-73
2024/02/02 13:57:17;;;;;;;5.93;2.90;;;12.00;99.90;;;;;;5079873;28;20407;-73
2024/02/02 14:00:04;;;;;;;7.87;2.70;;;12.20;97.70;;;;;;5068083;28;20469;-72
2024/02/02 14:02:51;;;;;;;9.20;3.10;;;12.30;96.10;;;;;;5081053;28;20522;-73
2024/02/02 14:05:37;;;;;;;4.97;2.80;;;12.30;93.60;;;;;;5072844;28;20457;-73
2024/02/02 14:08:22;;;;;;;4.90;2.87;;;12.30;91.20;;;;;;5084258;28;20445;-72
2024/02/02 14:11:09;;;;;;;5.83;3.23;;;12.40;92.00;;;;;;5069975;28;20966;-73
2024/02/02 14:13:55;;;;;;;6.80;2.93;;;12.30;92.50;;;;;;5075064;28;20498;-73
2024/02/02 14:16:41;;;;;;;3.47;1.93;;;12.20;92.90;;;;;;5079645;28;20453;-73
2024/02/02 14:19:28;;;;;;;9.57;3.63;;;12.00;90.30;;;;;;5070232;28;20594;-73
2024/02/02 14:22:14;;;;;;;7.33;3.00;;;12.00;91.90;;;;;;5073085;28;20477;-72
2024/02/02 14:25:03;;;;;;;5.70;2.77;;;11.80;91.60;;;;;;5073427;28;20445;-73
2024/02/02 14:27:48;;;;;;;6.30;2.93;;;11.70;92.70;;;;;;5073561;28;20453;-73
2024/02/02 14:30:35;;;;;;;6.50;3.30;;;11.60;94.60;;;;;;5080752;28;20427;-73
2024/02/02 14:33:20;;;;;;;5.73;2.60;;;11.50;92.70;;;;;;5081107;28;20558;-72
2024/02/02 14:36:09;;;;;;;7.47;3.50;;;11.40;92.00;;;;;;5079611;28;20429;-73